createdAt,value
2018-12-17T00:01:12.389Z,100653.95
2018-12-17T00:03:42.849Z,100660.34
2018-12-17T00:06:12.479Z,100666.81
2018-12-17T00:08:42.083Z,100669.83
2018-12-17T00:11:11.728Z,100662.47
2018-12-17T00:13:41.335Z,100663.75
2018-12-17T00:16:11.052Z,100666.75
2018-12-17T00:18:40.641Z,100676.57
2018-12-17T00:21:10.626Z,100670.53
2018-12-17T00:23:40.256Z,100673.50
2018-12-17T00:26:09.853Z,100674.84
2018-12-17T00:28:39.530Z,100667.09
2018-12-17T00:31:09.269Z,100671.78
2018-12-17T00:33:38.878Z,100679.48
2018-12-17T00:36:09.164Z,100678.30
2018-12-17T00:38:39.070Z,100682.27
2018-12-17T00:41:08.658Z,100686.95
2018-12-17T00:43:38.596Z,100686.53
2018-12-17T00:46:08.531Z,100686.00
2018-12-17T00:48:38.203Z,100678.17
2018-12-17T00:51:07.968Z,100679.84
2018-12-17T00:53:38.166Z,100680.30
2018-12-17T00:56:07.831Z,100678.08
2018-12-17T00:58:37.415Z,100685.40
2018-12-17T01:01:07.130Z,100689.27
2018-12-17T01:03:36.790Z,100686.25
2018-12-17T01:06:07.067Z,100691.33
2018-12-17T01:08:36.669Z,100686.95
2018-12-17T01:11:06.672Z,100689.94
2018-12-17T01:13:36.386Z,100692.46
2018-12-17T01:16:07.750Z,100692.84
2018-12-17T01:18:37.319Z,100692.41
2018-12-17T01:21:06.939Z,100691.48
2018-12-17T01:26:25.042Z,100683.23
2018-12-17T01:28:55.374Z,100678.02
2018-12-17T01:31:25.132Z,100681.45
2018-12-17T01:33:54.709Z,100683.55
2018-12-17T01:36:24.296Z,100691.69
2018-12-17T01:38:56.477Z,100692.11
2018-12-17T01:41:26.491Z,100686.52
2018-12-17T01:43:56.093Z,100681.28
2018-12-17T01:46:26.113Z,100687.75
2018-12-17T01:48:58.075Z,100682.10
2018-12-17T01:51:28.344Z,100678.20
2018-12-17T01:54:00.169Z,100677.34
2018-12-17T01:56:30.168Z,100679.52
2018-12-17T01:58:59.750Z,100679.45
2018-12-17T02:01:30.392Z,100681.62
2018-12-17T02:04:00.312Z,100686.79
2018-12-17T02:06:29.952Z,100687.75
2018-12-17T02:08:59.569Z,100690.78
2018-12-17T02:11:29.865Z,100686.84
2018-12-17T02:13:59.497Z,100685.55
2018-12-17T02:16:29.170Z,100686.41
2018-12-17T02:18:59.080Z,100679.09
2018-12-17T02:21:28.668Z,100680.38
2018-12-17T02:23:58.245Z,100684.27
2018-12-17T02:26:31.058Z,100679.62
2018-12-17T02:29:01.747Z,100683.02
2018-12-17T02:31:32.009Z,100684.75
2018-12-17T02:34:01.629Z,100686.89
2018-12-17T02:36:31.319Z,100682.64
2018-12-17T02:39:00.900Z,100685.13
2018-12-17T02:41:32.675Z,100676.49
2018-12-17T02:44:02.516Z,100678.72
2018-12-17T02:46:32.253Z,100689.92
2018-12-17T02:49:01.873Z,100688.63
2018-12-17T02:51:32.286Z,100695.03
2018-12-17T02:54:03.720Z,100692.87
2018-12-17T02:56:35.081Z,100693.31
2018-12-17T02:59:06.277Z,100683.44
2018-12-17T03:01:35.865Z,100691.63
2018-12-17T03:04:06.269Z,100688.67
2018-12-17T03:06:35.858Z,100694.61
2018-12-17T03:09:07.761Z,100696.38
2018-12-17T03:11:37.403Z,100699.39
2018-12-17T03:14:07.020Z,100690.40
2018-12-17T03:16:36.636Z,100683.62
2018-12-17T03:19:06.547Z,100696.97
2018-12-17T03:21:36.223Z,100698.32
2018-12-17T03:24:08.449Z,100697.52
2018-12-17T03:26:38.086Z,100700.98
2018-12-17T03:29:07.733Z,100712.16
2018-12-17T03:31:39.115Z,100709.64
2018-12-17T03:34:16.408Z,100715.23
2018-12-17T03:36:46.890Z,100716.48
2018-12-17T03:39:16.499Z,100712.22
2018-12-17T03:41:46.125Z,100706.19
2018-12-17T03:44:15.964Z,100714.76
2018-12-17T03:46:45.557Z,100717.39
2018-12-17T03:49:15.370Z,100714.81
2018-12-17T03:51:44.992Z,100707.16
2018-12-17T03:54:17.057Z,100713.14
2018-12-17T03:56:46.671Z,100711.85
2018-12-17T03:59:16.234Z,100705.00
2018-12-17T04:01:45.803Z,100707.16
2018-12-17T04:04:16.214Z,100703.77
2018-12-17T04:06:46.244Z,100703.77
2018-12-17T04:09:15.877Z,100706.80
2018-12-17T04:11:45.641Z,100701.23
2018-12-17T04:14:15.271Z,100711.52
2018-12-17T04:16:44.877Z,100702.10
2018-12-17T04:19:14.451Z,100708.56
2018-12-17T04:21:44.183Z,100697.03
2018-12-17T04:24:14.978Z,100706.09
2018-12-17T04:26:44.627Z,100702.67
2018-12-17T04:29:14.280Z,100699.23
2018-12-17T04:31:43.863Z,100700.48
2018-12-17T04:34:13.440Z,100700.47
2018-12-17T04:36:47.859Z,100700.05
2018-12-17T04:39:20.191Z,100707.80
2018-12-17T04:41:50.353Z,100712.55
2018-12-17T04:44:20.550Z,100722.94
2018-12-17T04:46:50.461Z,100722.94
2018-12-17T04:49:20.640Z,100733.23
2018-12-17T04:51:50.659Z,100733.22
2018-12-17T04:54:20.476Z,100737.05
2018-12-17T04:56:50.358Z,100736.98
2018-12-17T04:59:20.487Z,100737.81
2018-12-17T05:01:52.063Z,100745.14
2018-12-17T05:04:22.063Z,100742.12
2018-12-17T05:06:51.974Z,100745.13
2018-12-17T05:09:21.861Z,100752.41
2018-12-17T05:11:52.002Z,100758.81
2018-12-17T05:14:22.011Z,100761.36
2018-12-17T05:16:52.078Z,100760.44
2018-12-17T05:19:25.264Z,100758.33
2018-12-17T05:21:54.854Z,100755.64
2018-12-17T05:24:24.489Z,100764.65
2018-12-17T05:26:55.823Z,100772.41
2018-12-17T05:29:25.623Z,100765.95
2018-12-17T05:32:00.397Z,100765.56
2018-12-17T05:34:30.060Z,100772.93
2018-12-17T05:36:59.974Z,100781.98
2018-12-17T05:39:32.171Z,100780.69
2018-12-17T05:42:02.069Z,100784.19
2018-12-17T05:44:39.341Z,100787.16
2018-12-17T05:47:08.961Z,100783.38
2018-12-17T05:49:38.559Z,100788.08
2018-12-17T05:52:08.217Z,100783.77
2018-12-17T05:54:37.817Z,100785.53
2018-12-17T05:57:11.717Z,100779.98
2018-12-17T05:59:41.460Z,100786.02
2018-12-17T06:02:11.067Z,100781.32
2018-12-17T06:04:42.710Z,100785.63
2018-12-17T06:07:12.361Z,100789.89
2018-12-17T06:09:42.007Z,100798.08
2018-12-17T06:12:12.570Z,100801.91
2018-12-17T06:14:44.286Z,100801.96
2018-12-17T06:17:13.848Z,100804.97
2018-12-17T06:19:43.449Z,100813.69
2018-12-17T06:22:14.036Z,100807.56
2018-12-17T06:24:46.790Z,100809.71
2018-12-17T06:27:18.310Z,100814.75
2018-12-17T06:29:52.813Z,100815.65
2018-12-17T06:32:22.427Z,100811.30
2018-12-17T06:34:52.026Z,100815.92
2018-12-17T06:37:22.723Z,100815.45
2018-12-17T06:39:52.351Z,100818.37
2018-12-17T06:42:21.936Z,100820.52
2018-12-17T06:44:51.538Z,100825.22
2018-12-17T06:47:21.166Z,100832.48
2018-12-17T06:49:50.754Z,100829.81
2018-12-17T06:52:20.390Z,100825.06
2018-12-17T06:54:54.788Z,100834.94
2018-12-17T06:57:23.333Z,100842.27
2018-12-17T06:59:53.962Z,100845.28
2018-12-17T07:02:24.785Z,100840.05
2018-12-17T07:04:57.221Z,100835.73
2018-12-17T07:07:26.975Z,100837.47
2018-12-17T07:09:59.126Z,100848.58
2018-12-17T07:12:28.803Z,100847.75
2018-12-17T07:14:58.401Z,100846.38
2018-12-17T07:17:28.597Z,100853.31
2018-12-17T07:19:58.218Z,100851.11
2018-12-17T07:22:32.075Z,100862.75
2018-12-17T07:25:03.509Z,100863.56
2018-12-17T07:27:34.220Z,100868.68
2018-12-17T07:30:07.933Z,100878.98
2018-12-17T07:32:37.504Z,100880.61
2018-12-17T07:35:07.250Z,100880.94
2018-12-17T07:37:39.311Z,100883.52
2018-12-17T07:40:09.390Z,100884.75
2018-12-17T07:42:39.005Z,100892.04
2018-12-17T07:45:10.807Z,100892.85
2018-12-17T07:47:40.501Z,100893.27
2018-12-17T07:50:10.082Z,100894.03
2018-12-17T07:52:39.698Z,100892.20
2018-12-17T07:55:09.516Z,100893.98
2018-12-17T07:57:41.311Z,100893.88
2018-12-17T08:00:36.545Z,100900.34
2018-12-17T08:03:06.139Z,100910.59
2018-12-17T08:05:35.759Z,100910.16
2018-12-17T08:08:05.440Z,100915.30
2018-12-17T08:10:39.282Z,100917.40
2018-12-17T08:13:08.954Z,100923.81
2018-12-17T08:15:41.853Z,100915.66
2018-12-17T08:18:23.276Z,100914.25
2018-12-17T08:20:53.263Z,100918.96
2018-12-17T08:23:22.877Z,100915.50
2018-12-17T08:25:52.458Z,100931.41
2018-12-17T08:28:27.567Z,100923.63
2018-12-17T08:30:57.904Z,100927.91
2018-12-17T08:33:27.923Z,100941.77
2018-12-17T08:35:59.215Z,100945.17
2018-12-17T08:38:29.732Z,100947.28
2018-12-17T08:40:59.340Z,100948.09
2018-12-17T08:43:31.528Z,100947.76
2018-12-17T08:46:01.170Z,100947.71
2018-12-17T08:48:30.797Z,100944.19
2018-12-17T08:51:00.411Z,100943.28
2018-12-17T08:53:30.093Z,100946.73
2018-12-17T08:55:59.677Z,100932.09
2018-12-17T08:58:30.989Z,100934.76
2018-12-17T09:01:00.953Z,100937.23
2018-12-17T09:03:30.559Z,100946.24
2018-12-17T09:11:18.502Z,100958.33
2018-12-17T09:13:48.068Z,100956.55
2018-12-17T09:16:18.243Z,100958.17
2018-12-17T09:18:47.854Z,100958.54
2018-12-17T09:21:17.444Z,100962.81
2018-12-17T09:23:47.040Z,100966.70
2018-12-17T09:26:16.697Z,100967.50
2018-12-17T09:28:46.868Z,100974.84
2018-12-17T09:31:16.453Z,100972.61
2018-12-17T09:33:46.078Z,100973.84
2018-12-17T09:36:16.517Z,100972.92
2018-12-17T09:38:46.244Z,100979.77
2018-12-17T09:41:15.856Z,100985.33
2018-12-17T09:43:46.202Z,100977.13
2018-12-17T09:46:15.802Z,100991.70
2018-12-17T09:48:45.406Z,100987.42
2018-12-17T09:51:19.588Z,100989.09
2018-12-17T09:53:46.873Z,100992.02
2018-12-17T09:56:16.565Z,100997.67
2018-12-17T09:58:46.233Z,100994.22
2018-12-17T10:01:17.832Z,101001.76
2018-12-17T10:03:50.911Z,100998.30
2018-12-17T10:06:20.943Z,101004.62
2018-12-17T10:08:50.517Z,100998.99
2018-12-17T10:11:20.102Z,101005.46
2018-12-17T10:13:49.685Z,100998.01
2018-12-17T10:16:22.441Z,100998.80
2018-12-17T10:18:54.357Z,100995.23
2018-12-17T10:21:24.028Z,100990.41
2018-12-17T10:23:56.521Z,100985.28
2018-12-17T10:26:26.817Z,100987.80
2018-12-17T10:28:57.576Z,100989.03
2018-12-17T10:31:27.242Z,100988.50
2018-12-17T10:33:59.666Z,100994.83
2018-12-17T10:36:33.815Z,100989.64
2018-12-17T10:39:03.854Z,101007.27
2018-12-17T10:41:37.496Z,101010.16
2018-12-17T10:44:07.537Z,101003.17
2018-12-17T10:46:37.341Z,100999.16
2018-12-17T10:49:08.172Z,100999.53
2018-12-17T10:51:37.884Z,101002.59
2018-12-17T10:54:08.520Z,101002.42
2018-12-17T10:56:38.281Z,101002.33
2018-12-17T10:59:07.952Z,101002.34
2018-12-17T11:04:44.629Z,101002.72
2018-12-17T11:07:19.127Z,100999.66
2018-12-17T11:09:50.053Z,101006.77
2018-12-17T11:12:19.680Z,101004.59
2018-12-17T11:14:49.266Z,101008.77
2018-12-17T11:17:20.275Z,101011.24
2018-12-17T11:19:52.062Z,101005.39
2018-12-17T11:22:21.639Z,101012.61
2018-12-17T11:24:51.251Z,101012.17
2018-12-17T11:27:20.848Z,101004.97
2018-12-17T11:29:50.473Z,101016.22
2018-12-17T11:32:20.665Z,101013.69
2018-12-17T11:34:52.416Z,101014.55
2018-12-17T11:37:25.029Z,101015.41
2018-12-17T11:39:54.686Z,101016.70
2018-12-17T11:42:24.298Z,101021.46
2018-12-17T11:44:56.997Z,101013.75
2018-12-17T11:47:28.566Z,101019.81
2018-12-17T11:49:58.177Z,101017.22
2018-12-17T11:52:28.829Z,101022.53
2018-12-17T11:54:58.649Z,101019.81
2018-12-17T12:00:58.029Z,101020.73
2018-12-17T12:03:27.786Z,101016.83
2018-12-17T12:06:00.213Z,101014.62
2018-12-17T12:08:33.210Z,101016.77
2018-12-17T12:11:02.902Z,101017.50
2018-12-17T12:13:33.582Z,101015.28
2018-12-17T12:16:05.520Z,101025.74
2018-12-17T12:18:35.960Z,101024.38
2018-12-17T12:23:42.613Z,101030.06
2018-12-17T12:26:12.303Z,101034.17
2018-12-17T12:28:44.765Z,101033.31
2018-12-17T12:31:14.428Z,101040.67
2018-12-17T12:33:45.799Z,101038.44
2018-12-17T12:36:16.623Z,101036.20
2018-12-17T12:38:47.265Z,101037.92
2018-12-17T12:41:17.366Z,101045.16
2018-12-17T12:43:50.311Z,101045.52
2018-12-17T12:46:20.231Z,101045.03
2018-12-17T12:48:51.012Z,101044.02
2018-12-17T12:51:21.736Z,101057.52
2018-12-17T12:53:53.260Z,101058.81
2018-12-17T12:56:24.056Z,101054.91
2018-12-17T12:58:58.688Z,101062.12
2018-12-17T13:01:28.557Z,101067.69
2018-12-17T13:04:01.279Z,101079.73
2018-12-17T13:06:36.824Z,101073.25
2018-12-17T13:09:08.270Z,101078.89
2018-12-17T13:11:38.113Z,101076.84
2018-12-17T13:14:07.929Z,101084.58
2018-12-17T13:16:37.703Z,101088.34
2018-12-17T13:19:07.611Z,101094.97
2018-12-17T13:21:37.600Z,101098.01
2018-12-17T13:24:07.662Z,101095.88
2018-12-17T13:26:37.688Z,101101.89
2018-12-17T13:29:07.811Z,101102.75
2018-12-17T13:31:38.789Z,101099.36
2018-12-17T13:34:09.129Z,101110.69
2018-12-17T13:36:39.014Z,101108.59
2018-12-17T13:39:09.364Z,101122.08
2018-12-17T13:41:39.048Z,101128.89
2018-12-17T13:49:36.873Z,101144.70
2018-12-17T13:52:18.295Z,101150.83
2018-12-17T13:54:47.903Z,101153.87
2018-12-17T13:57:18.063Z,101153.84
2018-12-17T14:02:54.903Z,101173.47
2018-12-17T15:38:07.282Z,101300.00
2018-12-17T15:40:53.041Z,101306.88
2018-12-17T15:43:23.941Z,101309.04
2018-12-17T15:45:58.350Z,101316.88
2018-12-17T15:48:28.173Z,101330.19
2018-12-17T15:54:04.805Z,101329.27
2018-12-17T15:57:04.416Z,101337.81
2018-12-17T15:59:41.506Z,101341.16
2018-12-17T16:02:18.639Z,101341.23
2018-12-17T16:04:48.418Z,101353.30
2018-12-17T16:07:25.259Z,101348.04
2018-12-17T16:09:57.680Z,101348.56
2018-12-17T16:12:42.377Z,101351.87
2018-12-17T19:05:48.740Z,101571.25
2018-12-17T19:13:36.869Z,101576.59
2018-12-17T19:21:24.400Z,101576.25
2018-12-17T19:26:27.803Z,101581.09
2018-12-17T19:29:01.989Z,101578.06
2018-12-17T19:31:34.477Z,101587.15
2018-12-17T19:34:05.775Z,101585.90
2018-12-17T19:44:38.000Z,101598.05
2018-12-17T19:52:32.320Z,101616.19
2018-12-17T20:39:29.831Z,101639.79
2018-12-17T20:52:33.630Z,101648.45
2018-12-17T21:05:27.297Z,101662.33
2018-12-17T21:10:47.527Z,101665.42
2018-12-17T21:15:53.526Z,101664.56
2018-12-17T21:18:28.183Z,101664.56
2018-12-17T21:21:00.904Z,101670.16
2018-12-17T21:23:35.494Z,101677.11
2018-12-17T21:26:08.743Z,101674.52
2018-12-17T21:36:33.115Z,101671.59
2018-12-17T21:41:49.572Z,101679.74
2018-12-17T21:44:20.696Z,101681.50
2018-12-17T21:46:52.885Z,101684.90
2018-12-17T21:49:24.932Z,101671.92
2018-12-17T21:54:45.194Z,101668.96
2018-12-17T21:59:53.823Z,101683.56
2018-12-17T22:02:23.939Z,101688.75
2018-12-17T22:04:55.841Z,101685.69
2018-12-17T22:07:26.858Z,101688.69
2018-12-17T22:09:56.525Z,101691.75
2018-12-17T22:12:28.732Z,101692.15
2018-12-17T22:14:58.440Z,101683.06
2018-12-17T22:17:29.495Z,101692.97
2018-12-17T22:20:00.807Z,101692.94
2018-12-17T22:22:32.046Z,101700.26
2018-12-17T22:27:37.950Z,101705.30
2018-12-17T22:30:13.450Z,101705.81
2018-12-17T22:32:44.687Z,101702.71
2018-12-17T22:35:17.051Z,101706.53
2018-12-17T22:37:47.673Z,101712.16
2018-12-17T22:40:19.057Z,101711.21
2018-12-17T22:42:49.815Z,101718.10
2018-12-17T22:45:20.632Z,101719.39
2018-12-17T22:47:51.723Z,101719.80
2018-12-17T22:50:22.430Z,101722.43
2018-12-17T22:52:53.031Z,101728.88
2018-12-17T22:55:24.194Z,101724.55
2018-12-17T22:57:54.909Z,101722.44
2018-12-17T23:00:24.756Z,101723.69
2018-12-17T23:02:55.211Z,101726.64
2018-12-17T23:05:27.816Z,101721.02
2018-12-17T23:07:59.534Z,101724.09
2018-12-17T23:10:47.279Z,101721.48
2018-12-17T23:13:34.024Z,101717.11
2018-12-17T23:16:20.721Z,101715.42
2018-12-17T23:18:48.783Z,101715.06
2018-12-17T23:21:19.339Z,101716.33
2018-12-17T23:23:49.031Z,101715.46
2018-12-17T23:26:18.734Z,101724.48
2018-12-17T23:28:48.366Z,101727.47
2018-12-17T23:31:18.042Z,101717.95
2018-12-17T23:33:47.758Z,101718.77
2018-12-17T23:36:17.474Z,101721.77
2018-12-17T23:38:47.056Z,101718.30
2018-12-17T23:41:16.670Z,101717.47
2018-12-17T23:43:46.277Z,101713.11
2018-12-17T23:46:15.992Z,101707.44
2018-12-17T23:48:45.614Z,101707.08
2018-12-17T23:51:15.459Z,101707.44
2018-12-17T23:53:45.117Z,101708.77
2018-12-17T23:56:14.715Z,101709.20
2018-12-17T23:58:44.338Z,101705.78
